Terminal Aerodrome Forecast
Issued by NWS

Home | Current Version | Previous Version | Text Only | Print | Product List | Glossary On
Versions: 1 2 3 4 5 6 7 8 9 10 11 12 13
562
FTPA31 PHFO 281139
TAFHMK
TAF
PHMK 281139Z 2812/0112 05010KT P6SM VCSH SCT020 BKN050 OVC150
     FM010100 03008KT 5SM SHRA BR VCTS SCT015CB BKN025 OVC040=

USA.gov is the U.S. government's official web portal to all federal, state and local government web resources and services.